<?xml version="1.0" encoding="UTF-8" standalone="no" ?>
<gpx xmlns="http://www.topografix.com/GPX/1/1" xmlns:xsi="http://www.w3.org/2001/XMLSchema-instance" xsi:schemaLocation="http://www.topografix.com/GPX/1/1 http://www.topografix.com/GPX/1/1/gpx.xsd" version="1.1" creator="VisuGPX - https://www.visugpx.com">
  <metadata>
    <name>ARQUES LA SEYNE SUR MER 1497 KM</name>
    <desc><![CDATA[Rando de Arques dans le Pas de Calais jusque La Seyne sur Mer dans le Var, 1497 km]]></desc>
  </metadata>
  <trk>
    <name><![CDATA[18 - Drosnay Villeret 18.5 km]]></name>
    <extensions>
      <line xmlns="http://www.topografix.com/GPX/gpx_style/0/2">
        <color>FFFF00</color>
        <width>4</width>
      </line>
    </extensions>
    <trkseg>
      <trkpt lat="48.57493" lon="4.61331">
        <ele>135</ele>
        <time>2021-11-05T11:10:32+01:00</time>
      </trkpt>
      <trkpt lat="48.57423" lon="4.61727">
        <ele>135</ele>
        <time>2021-11-05T11:10:37+01:00</time>
      </trkpt>
      <trkpt lat="48.57362" lon="4.62504">
        <ele>132</ele>
        <time>2021-11-05T11:10:42+01:00</time>
      </trkpt>
      <trkpt lat="48.56969" lon="4.63083">
        <ele>131</ele>
        <time>2021-11-05T11:10:47+01:00</time>
      </trkpt>
      <trkpt lat="48.56253" lon="4.63753">
        <ele>129</ele>
        <time>2021-11-05T11:10:52+01:00</time>
      </trkpt>
      <trkpt lat="48.55447" lon="4.6488">
        <ele>133</ele>
        <time>2021-11-05T11:10:57+01:00</time>
      </trkpt>
      <trkpt lat="48.55447" lon="4.65108">
        <ele>132</ele>
        <time>2021-11-05T11:11:02+01:00</time>
      </trkpt>
      <trkpt lat="48.55074" lon="4.65657">
        <ele>129</ele>
        <time>2021-11-05T11:11:07+01:00</time>
      </trkpt>
      <trkpt lat="48.54963" lon="4.66083">
        <ele>125</ele>
        <time>2021-11-05T11:11:12+01:00</time>
      </trkpt>
      <trkpt lat="48.54257" lon="4.67103">
        <ele>131</ele>
        <time>2021-11-05T11:11:17+01:00</time>
      </trkpt>
      <trkpt lat="48.54066" lon="4.6753">
        <ele>129</ele>
        <time>2021-11-05T11:11:22+01:00</time>
      </trkpt>
      <trkpt lat="48.53733" lon="4.67408">
        <ele>119</ele>
        <time>2021-11-05T11:11:27+01:00</time>
      </trkpt>
      <trkpt lat="48.53773" lon="4.67027">
        <ele>120</ele>
        <time>2021-11-05T11:11:32+01:00</time>
      </trkpt>
      <trkpt lat="48.53128" lon="4.66905">
        <ele>126</ele>
        <time>2021-11-05T11:11:37+01:00</time>
      </trkpt>
      <trkpt lat="48.52634" lon="4.65672">
        <ele>120</ele>
        <time>2021-11-05T11:11:42+01:00</time>
      </trkpt>
      <trkpt lat="48.5225" lon="4.65428">
        <ele>124</ele>
        <time>2021-11-05T11:11:47+01:00</time>
      </trkpt>
      <trkpt lat="48.51857" lon="4.65459">
        <ele>125</ele>
        <time>2021-11-05T11:11:52+01:00</time>
      </trkpt>
      <trkpt lat="48.51161" lon="4.636">
        <ele>134</ele>
        <time>2021-11-05T11:11:57+01:00</time>
      </trkpt>
      <trkpt lat="48.50899" lon="4.63189">
        <ele>141</ele>
        <time>2021-11-05T11:12:02+01:00</time>
      </trkpt>
      <trkpt lat="48.5107" lon="4.6223">
        <ele>128</ele>
        <time>2021-11-05T11:12:07+01:00</time>
      </trkpt>
      <trkpt lat="48.5105" lon="4.61864">
        <ele>129</ele>
        <time>2021-11-05T11:12:12+01:00</time>
      </trkpt>
      <trkpt lat="48.51302" lon="4.61209">
        <ele>133</ele>
        <time>2021-11-05T11:12:17+01:00</time>
      </trkpt>
      <trkpt lat="48.50798" lon="4.60692">
        <ele>123</ele>
        <time>2021-11-05T11:12:22+01:00</time>
      </trkpt>
      <trkpt lat="48.50132" lon="4.60387">
        <ele>121</ele>
        <time>2021-11-05T11:12:27+01:00</time>
      </trkpt>
      <trkpt lat="48.49274" lon="4.61011">
        <ele>115</ele>
        <time>2021-11-05T11:12:32+01:00</time>
      </trkpt>
      <trkpt lat="48.4887" lon="4.61499">
        <ele>117</ele>
        <time>2021-11-05T11:12:37+01:00</time>
      </trkpt>
      <trkpt lat="48.48396" lon="4.61057">
        <ele>116</ele>
        <time>2021-11-05T11:12:42+01:00</time>
      </trkpt>
      <trkpt lat="48.48163" lon="4.60646">
        <ele>117</ele>
        <time>2021-11-05T11:12:47+01:00</time>
      </trkpt>
      <trkpt lat="48.47892" lon="4.59689">
        <ele>113</ele>
        <time>2021-11-05T11:12:52+01:00</time>
      </trkpt>
      <trkpt lat="48.47861" lon="4.59576">
        <ele>112</ele>
        <time>2021-11-05T11:12:57+01:00</time>
      </trkpt>
      <trkpt lat="48.47857" lon="4.59371">
        <ele>114</ele>
        <time>2021-11-05T11:13:02+01:00</time>
      </trkpt>
      <trkpt lat="48.47796" lon="4.59208">
        <ele>114</ele>
        <time>2021-11-05T11:13:07+01:00</time>
      </trkpt>
      <trkpt lat="48.4776" lon="4.59075">
        <ele>114</ele>
        <time>2021-11-05T11:13:12+01:00</time>
      </trkpt>
    </trkseg>
  </trk>
</gpx>